createdAt,value
2018-09-19T00:00:32.227Z,5.73
2018-09-19T00:04:34.820Z,4.83
2018-09-19T00:08:37.475Z,4.80
2018-09-19T00:12:40.110Z,4.90
2018-09-19T00:16:42.723Z,5.43
2018-09-19T00:20:45.378Z,4.97
2018-09-19T00:24:47.995Z,5.03
2018-09-19T00:28:50.608Z,4.83
2018-09-19T00:32:53.232Z,4.60
2018-09-19T00:36:55.774Z,4.20
2018-09-19T00:40:58.332Z,4.93
2018-09-19T00:45:00.902Z,5.00
2018-09-19T00:49:03.558Z,4.83
2018-09-19T00:53:06.238Z,4.67
2018-09-19T00:57:08.892Z,4.60
2018-09-19T01:01:11.473Z,5.03
2018-09-19T01:05:20.178Z,4.33
2018-09-19T01:09:29.010Z,4.73
2018-09-19T01:13:37.917Z,4.60
2018-09-19T01:17:46.677Z,4.33
2018-09-19T01:21:55.585Z,5.00
2018-09-19T01:26:04.444Z,4.60
2018-09-19T01:30:13.297Z,4.10
2018-09-19T01:34:22.082Z,4.33
2018-09-19T01:38:31.009Z,5.90
2018-09-19T01:42:39.890Z,4.87
2018-09-19T01:46:48.766Z,4.87
2018-09-19T01:50:57.496Z,5.73
2018-09-19T01:55:06.385Z,4.10
2018-09-19T01:59:15.260Z,4.57
2018-09-19T02:03:23.956Z,4.40
2018-09-19T02:07:32.748Z,4.27
2018-09-19T02:11:41.965Z,4.40
2018-09-19T02:15:50.807Z,4.97
2018-09-19T02:19:59.592Z,4.27
2018-09-19T02:24:08.433Z,4.07
2018-09-19T02:28:17.136Z,3.93
2018-09-19T02:32:25.932Z,4.40
2018-09-19T02:36:34.850Z,3.80
2018-09-19T02:40:43.591Z,4.63
2018-09-19T02:44:52.370Z,3.97
2018-09-19T02:49:01.002Z,4.03
2018-09-19T02:53:09.822Z,4.87
2018-09-19T02:57:18.652Z,3.60
2018-09-19T03:01:27.360Z,4.60
2018-09-19T03:05:36.179Z,4.47
2018-09-19T03:09:45.002Z,4.70
2018-09-19T03:13:53.938Z,5.00
2018-09-19T03:18:02.773Z,4.90
2018-09-19T03:22:11.466Z,4.50
2018-09-19T03:26:20.350Z,4.97
2018-09-19T03:30:29.115Z,5.13
2018-09-19T03:34:38.030Z,5.63
2018-09-19T03:38:46.754Z,5.47
2018-09-19T03:42:55.608Z,5.67
2018-09-19T03:47:04.445Z,4.93
2018-09-19T03:51:13.295Z,5.60
2018-09-19T03:55:22.196Z,4.90
2018-09-19T03:59:31.065Z,5.43
2018-09-19T04:03:39.974Z,5.47
2018-09-19T04:07:48.734Z,6.53
2018-09-19T04:11:57.558Z,6.13
2018-09-19T04:16:06.326Z,5.13
2018-09-19T04:20:15.104Z,4.80
2018-09-19T04:24:23.913Z,5.77
2018-09-19T04:28:32.796Z,5.87
2018-09-19T04:32:41.564Z,5.90
2018-09-19T04:36:50.356Z,6.23
2018-09-19T04:40:59.123Z,5.97
2018-09-19T04:45:07.947Z,6.17
2018-09-19T04:49:16.691Z,6.13
2018-09-19T04:53:25.589Z,6.07
2018-09-19T04:57:34.288Z,5.83
2018-09-19T05:01:43.086Z,5.43
2018-09-19T05:05:51.973Z,6.23
2018-09-19T05:10:00.807Z,6.57
2018-09-19T05:14:09.703Z,5.70
2018-09-19T05:18:18.629Z,6.93
2018-09-19T05:22:27.593Z,6.13
2018-09-19T05:26:36.458Z,6.50
2018-09-19T05:30:45.091Z,6.53
2018-09-19T05:34:54.029Z,7.10
2018-09-19T05:39:03.333Z,6.30
2018-09-19T05:43:12.094Z,7.60
2018-09-19T05:47:20.916Z,7.73
2018-09-19T05:51:30.038Z,7.03
2018-09-19T05:55:38.698Z,7.50
2018-09-19T05:59:48.095Z,7.50
2018-09-19T06:03:57.095Z,7.90
2018-09-19T06:08:05.798Z,8.33
2018-09-19T06:12:14.526Z,8.10
2018-09-19T06:16:23.299Z,8.20
2018-09-19T06:20:32.114Z,8.43
2018-09-19T06:24:40.963Z,8.47
2018-09-19T06:28:49.599Z,8.30
2018-09-19T06:32:58.520Z,8.80
2018-09-19T06:37:07.428Z,9.27
2018-09-19T06:41:16.222Z,9.03
2018-09-19T06:45:25.139Z,8.57
2018-09-19T06:49:34.028Z,8.67
2018-09-19T06:53:42.857Z,8.40
2018-09-19T06:57:51.736Z,8.70
2018-09-19T07:02:00.639Z,8.57
2018-09-19T07:06:09.421Z,8.33
2018-09-19T07:10:18.282Z,8.33
2018-09-19T07:14:27.005Z,8.33
2018-09-19T07:18:35.803Z,15.57
2018-09-19T07:22:44.599Z,7.50
2018-09-19T07:26:53.354Z,7.67
2018-09-19T07:31:02.253Z,8.03
2018-09-19T07:35:10.892Z,8.10
2018-09-19T07:39:19.721Z,8.27
2018-09-19T07:43:28.369Z,7.77
2018-09-19T07:47:37.274Z,6.73
2018-09-19T07:51:46.142Z,7.83
2018-09-19T07:55:54.822Z,5.93
2018-09-19T08:00:03.682Z,6.53
2018-09-19T08:04:12.434Z,6.40
2018-09-19T08:08:21.459Z,5.90
2018-09-19T08:12:30.286Z,5.67
2018-09-19T08:16:39.095Z,5.37
2018-09-19T08:20:47.847Z,5.60
2018-09-19T08:24:56.675Z,4.63
2018-09-19T08:29:05.344Z,5.30
2018-09-19T08:33:14.051Z,4.30
2018-09-19T08:37:22.753Z,5.10
2018-09-19T08:41:31.351Z,4.73
2018-09-19T08:45:40.040Z,4.57
2018-09-19T08:49:48.910Z,4.37
2018-09-19T08:53:57.787Z,5.43
2018-09-19T08:58:06.537Z,4.13
2018-09-19T09:02:15.268Z,5.50
2018-09-19T09:06:24.003Z,5.17
2018-09-19T09:10:32.699Z,5.03
2018-09-19T09:14:41.328Z,5.03
2018-09-19T09:18:50.065Z,5.03
2018-09-19T09:22:58.960Z,5.47
2018-09-19T09:27:07.827Z,5.20
2018-09-19T09:31:16.557Z,5.20
2018-09-19T09:35:25.571Z,5.43
2018-09-19T09:39:34.485Z,5.17
2018-09-19T09:43:43.265Z,4.70
2018-09-19T09:47:51.998Z,5.13
2018-09-19T09:52:00.730Z,5.20
2018-09-19T09:56:09.528Z,5.13
2018-09-19T10:00:22.705Z,5.43
2018-09-19T10:04:31.640Z,5.00
2018-09-19T10:08:40.268Z,5.93
2018-09-19T10:12:49.203Z,5.03
2018-09-19T10:16:57.935Z,4.70
2018-09-19T10:21:06.739Z,5.03
2018-09-19T10:25:15.605Z,5.97
2018-09-19T10:29:24.449Z,7.27
2018-09-19T10:33:33.141Z,7.23
2018-09-19T10:37:41.832Z,7.97
2018-09-19T10:41:50.695Z,4.37
2018-09-19T10:45:59.419Z,4.37
2018-09-19T10:50:08.295Z,4.43
2018-09-19T10:54:17.129Z,4.73
2018-09-19T10:58:25.812Z,4.37
2018-09-19T11:02:34.590Z,4.27
2018-09-19T11:06:43.373Z,4.00
2018-09-19T11:10:52.050Z,4.17
2018-09-19T11:15:00.808Z,3.70
2018-09-19T11:19:09.533Z,3.93
2018-09-19T11:23:18.596Z,4.30
2018-09-19T11:27:27.438Z,4.80
2018-09-19T11:31:36.347Z,4.97
2018-09-19T11:35:45.305Z,5.17
2018-09-19T11:39:54.099Z,4.67
2018-09-19T11:44:02.788Z,5.40
2018-09-19T11:48:11.486Z,5.87
2018-09-19T11:52:20.776Z,5.63
2018-09-19T11:56:29.684Z,5.63
2018-09-19T12:00:38.609Z,5.30
2018-09-19T12:04:47.402Z,4.97
2018-09-19T12:08:55.997Z,5.57
2018-09-19T12:13:06.212Z,5.10
2018-09-19T12:17:14.984Z,4.90
2018-09-19T12:21:23.768Z,5.00
2018-09-19T12:25:32.618Z,5.63
2018-09-19T12:29:41.480Z,5.53
2018-09-19T12:33:50.352Z,5.47
2018-09-19T12:37:59.309Z,5.07
2018-09-19T12:42:08.041Z,6.23
2018-09-19T12:46:16.939Z,5.50
2018-09-19T12:50:25.820Z,5.17
2018-09-19T12:54:34.515Z,4.90
2018-09-19T12:58:43.557Z,5.67
2018-09-19T13:02:52.312Z,4.90
2018-09-19T13:07:01.236Z,4.87
2018-09-19T13:11:10.045Z,4.53
2018-09-19T13:15:18.762Z,4.30
2018-09-19T13:19:27.689Z,4.23
2018-09-19T13:23:36.493Z,4.50
2018-09-19T13:27:45.265Z,5.10
2018-09-19T13:31:54.671Z,4.50
2018-09-19T13:36:03.437Z,4.23
2018-09-19T13:40:12.468Z,4.43
2018-09-19T13:44:21.157Z,4.10
2018-09-19T13:48:30.240Z,4.90
2018-09-19T13:52:39.204Z,4.10
2018-09-19T13:56:47.921Z,4.20
2018-09-19T14:00:56.843Z,4.50
2018-09-19T14:05:05.661Z,4.10
2018-09-19T14:09:15.299Z,4.43
2018-09-19T14:13:24.021Z,4.43
2018-09-19T14:17:32.591Z,4.83
2018-09-19T14:21:41.315Z,4.40
2018-09-19T14:25:50.173Z,4.33
2018-09-19T14:29:59.257Z,4.57
2018-09-19T14:34:09.582Z,5.00
2018-09-19T14:38:18.429Z,4.17
2018-09-19T14:42:32.478Z,4.33
2018-09-19T14:50:57.900Z,4.90
2018-09-19T14:55:10.551Z,4.73
2018-09-19T14:59:19.379Z,6.40
2018-09-19T15:03:28.146Z,5.07
2018-09-19T15:07:36.944Z,5.33
2018-09-19T15:11:45.863Z,4.50
2018-09-19T15:15:54.666Z,4.63
2018-09-19T15:20:03.681Z,5.00
2018-09-19T15:24:12.571Z,4.77
2018-09-19T15:28:21.284Z,5.13
2018-09-19T15:32:30.080Z,4.63
2018-09-19T15:36:39.212Z,4.70
2018-09-19T15:40:48.289Z,5.33
2018-09-19T15:44:57.144Z,4.33
2018-09-19T15:48:59.894Z,4.10
2018-09-19T15:53:03.714Z,4.90
2018-09-19T15:57:06.853Z,4.70
2018-09-19T16:01:09.639Z,4.43
2018-09-19T16:05:13.590Z,5.13
2018-09-19T16:09:16.756Z,4.50
2018-09-19T16:13:20.175Z,4.80
2018-09-19T16:17:22.916Z,4.40
2018-09-19T16:21:26.529Z,4.00
2018-09-19T16:25:29.229Z,4.40
2018-09-19T16:29:32.394Z,4.50
2018-09-19T16:33:35.084Z,4.50
2018-09-19T16:37:37.861Z,4.33
2018-09-19T16:41:40.604Z,4.37
2018-09-19T16:45:43.382Z,3.77
2018-09-19T16:49:45.947Z,4.67
2018-09-19T16:53:48.674Z,4.63
2018-09-19T16:57:51.445Z,5.60
2018-09-19T17:01:54.254Z,3.70
2018-09-19T17:05:56.851Z,4.43
2018-09-19T17:09:59.468Z,3.80
2018-09-19T17:14:02.123Z,4.37
2018-09-19T17:18:05.090Z,4.40
2018-09-19T17:22:08.012Z,4.13
2018-09-19T17:26:12.218Z,5.30
2018-09-19T17:30:14.829Z,5.53
2018-09-19T17:34:17.602Z,4.07
2018-09-19T17:38:20.847Z,4.60
2018-09-19T17:42:23.741Z,4.20
2018-09-19T17:46:27.569Z,4.13
2018-09-19T17:50:30.242Z,3.93
2018-09-19T17:54:34.390Z,4.90
2018-09-19T17:58:38.141Z,3.93
2018-09-19T18:02:40.998Z,4.23
2018-09-19T18:06:43.675Z,4.37
2018-09-19T18:10:47.271Z,4.57
2018-09-19T18:14:50.673Z,4.23
2018-09-19T18:18:53.414Z,4.70
2018-09-19T18:22:56.248Z,3.73
2018-09-19T18:26:59.253Z,3.57
2018-09-19T18:31:03.181Z,6.30
2018-09-19T18:35:05.875Z,4.93
2018-09-19T18:39:09.829Z,9.87
2018-09-19T18:47:33.819Z,4.73
2018-09-19T18:51:36.400Z,4.70
2018-09-19T18:55:39.176Z,5.07
2018-09-19T18:59:41.992Z,4.90
2018-09-19T19:03:46.939Z,5.27
2018-09-19T19:07:49.859Z,5.43
2018-09-19T19:11:52.741Z,4.87
2018-09-19T19:15:57.192Z,4.60
2018-09-19T19:20:00.065Z,5.50
2018-09-19T19:24:02.922Z,5.20
2018-09-19T19:28:06.079Z,5.20
2018-09-19T19:32:08.790Z,5.33
2018-09-19T19:36:11.704Z,5.43
2018-09-19T19:40:14.970Z,4.93
2018-09-19T19:44:17.707Z,5.40
2018-09-19T19:48:20.338Z,6.00
2018-09-19T19:52:23.317Z,5.47
2018-09-19T19:56:26.009Z,4.90
2018-09-19T20:00:28.658Z,4.37
2018-09-19T20:04:32.478Z,5.30
2018-09-19T20:08:35.991Z,5.17
2018-09-19T20:12:38.931Z,4.90
2018-09-19T20:16:41.642Z,4.70
2018-09-19T20:20:44.269Z,4.80
2018-09-19T20:24:47.079Z,5.03
2018-09-19T20:28:49.817Z,4.63
2018-09-19T20:32:52.631Z,6.40
2018-09-19T20:36:55.325Z,4.90
2018-09-19T20:40:58.786Z,5.60
2018-09-19T20:45:05.492Z,5.53
2018-09-19T20:49:09.623Z,5.57
2018-09-19T20:53:12.710Z,5.23
2018-09-19T20:57:15.466Z,4.83
2018-09-19T21:01:18.230Z,5.20
2018-09-19T21:05:21.814Z,5.10
2018-09-19T21:09:24.537Z,5.37
2018-09-19T21:13:27.201Z,5.33
2018-09-19T21:17:29.892Z,5.10
2018-09-19T21:21:32.760Z,5.37
2018-09-19T21:25:35.791Z,5.20
2018-09-19T21:29:38.493Z,6.17
2018-09-19T21:33:41.119Z,6.37
2018-09-19T21:37:43.774Z,6.70
2018-09-19T21:41:46.427Z,7.00
2018-09-19T21:45:49.062Z,5.70
2018-09-19T21:49:51.680Z,5.83
2018-09-19T21:53:54.269Z,5.53
2018-09-19T21:57:56.973Z,5.90
2018-09-19T22:02:00.397Z,6.80
2018-09-19T22:06:03.059Z,5.50
2018-09-19T22:10:05.747Z,5.70
2018-09-19T22:14:08.538Z,5.60
2018-09-19T22:18:11.188Z,5.47
2018-09-19T22:22:13.772Z,5.63
2018-09-19T22:26:17.746Z,5.03
2018-09-19T22:30:20.412Z,4.77
2018-09-19T22:34:23.061Z,5.47
2018-09-19T22:38:25.692Z,4.50
2018-09-19T22:42:28.390Z,5.33
2018-09-19T22:46:31.038Z,4.70
2018-09-19T22:50:33.741Z,5.00
2018-09-19T22:54:36.384Z,5.17
2018-09-19T22:58:39.034Z,5.80
2018-09-19T23:02:41.602Z,6.57
2018-09-19T23:06:44.264Z,5.67
2018-09-19T23:10:46.908Z,6.87
2018-09-19T23:14:49.655Z,6.40
2018-09-19T23:18:52.341Z,6.27
2018-09-19T23:22:54.992Z,6.67
2018-09-19T23:26:57.635Z,6.40
2018-09-19T23:31:00.337Z,5.63
2018-09-19T23:35:02.977Z,6.60
2018-09-19T23:39:07.052Z,5.60
2018-09-19T23:43:09.720Z,5.23
2018-09-19T23:47:12.492Z,5.33
2018-09-19T23:51:15.124Z,4.93
2018-09-19T23:55:17.721Z,5.20
2018-09-19T23:59:20.353Z,5.77
